sensor_id;sensor_type;location;lat;lon;timestamp;P1;durP1;ratioP1;P2;durP2;ratioP2
61144;SDS011;47026;51.208;3.288;2022-07-29T00:00:48;7.20;;;1.85;;
61144;SDS011;47026;51.208;3.288;2022-07-29T00:03:14;4.70;;;2.00;;
61144;SDS011;47026;51.208;3.288;2022-07-29T00:05:40;4.72;;;1.80;;
61144;SDS011;47026;51.208;3.288;2022-07-29T00:08:07;3.33;;;1.67;;
61144;SDS011;47026;51.208;3.288;2022-07-29T00:10:33;4.60;;;1.70;;
61144;SDS011;47026;51.208;3.288;2022-07-29T00:12:59;4.10;;;1.58;;
61144;SDS011;47026;51.208;3.288;2022-07-29T00:15:26;2.67;;;1.92;;
61144;SDS011;47026;51.208;3.288;2022-07-29T00:17:52;2.30;;;1.77;;
61144;SDS011;47026;51.208;3.288;2022-07-29T00:20:17;3.03;;;1.87;;
61144;SDS011;47026;51.208;3.288;2022-07-29T00:22:43;3.97;;;1.98;;
61144;SDS011;47026;51.208;3.288;2022-07-29T00:25:09;5.35;;;2.17;;
61144;SDS011;47026;51.208;3.288;2022-07-29T00:27:37;3.85;;;1.90;;
61144;SDS011;47026;51.208;3.288;2022-07-29T00:30:03;3.30;;;1.90;;
61144;SDS011;47026;51.208;3.288;2022-07-29T00:32:29;3.62;;;2.00;;
61144;SDS011;47026;51.208;3.288;2022-07-29T00:34:55;4.12;;;1.95;;
61144;SDS011;47026;51.208;3.288;2022-07-29T00:37:44;6.07;;;1.85;;
61144;SDS011;47026;51.208;3.288;2022-07-29T00:40:10;3.72;;;2.22;;
61144;SDS011;47026;51.208;3.288;2022-07-29T00:42:46;4.37;;;2.00;;
61144;SDS011;47026;51.208;3.288;2022-07-29T00:45:13;4.40;;;2.20;;
61144;SDS011;47026;51.208;3.288;2022-07-29T00:47:40;5.03;;;1.77;;
61144;SDS011;47026;51.208;3.288;2022-07-29T00:50:07;4.32;;;1.98;;
61144;SDS011;47026;51.208;3.288;2022-07-29T00:52:35;4.12;;;2.00;;
61144;SDS011;47026;51.208;3.288;2022-07-29T00:55:06;2.33;;;2.08;;
61144;SDS011;47026;51.208;3.288;2022-07-29T00:57:35;1.67;;;1.58;;
61144;SDS011;47026;51.208;3.288;2022-07-29T01:00:03;4.30;;;2.05;;
61144;SDS011;47026;51.208;3.288;2022-07-29T01:02:30;3.92;;;2.08;;
61144;SDS011;47026;51.208;3.288;2022-07-29T01:04:56;3.95;;;2.10;;
61144;SDS011;47026;51.208;3.288;2022-07-29T01:07:23;4.47;;;2.00;;
61144;SDS011;47026;51.208;3.288;2022-07-29T01:09:51;6.45;;;2.30;;
61144;SDS011;47026;51.208;3.288;2022-07-29T01:12:19;3.20;;;2.08;;
61144;SDS011;47026;51.208;3.288;2022-07-29T01:14:48;4.22;;;2.03;;
61144;SDS011;47026;51.208;3.288;2022-07-29T01:30:47;3.42;;;2.35;;
61144;SDS011;47026;51.208;3.288;2022-07-29T01:33:17;5.62;;;2.35;;
61144;SDS011;47026;51.208;3.288;2022-07-29T01:36:05;4.65;;;2.55;;
61144;SDS011;47026;51.208;3.288;2022-07-29T01:38:35;5.80;;;2.80;;
61144;SDS011;47026;51.208;3.288;2022-07-29T01:41:12;5.55;;;2.35;;
61144;SDS011;47026;51.208;3.288;2022-07-29T01:43:43;5.28;;;2.40;;
61144;SDS011;47026;51.208;3.288;2022-07-29T01:46:15;2.80;;;2.10;;
61144;SDS011;47026;51.208;3.288;2022-07-29T01:48:57;4.93;;;2.70;;
61144;SDS011;47026;51.208;3.288;2022-07-29T01:51:41;3.10;;;2.13;;
61144;SDS011;47026;51.208;3.288;2022-07-29T01:54:42;5.03;;;2.35;;
61144;SDS011;47026;51.208;3.288;2022-07-29T01:57:14;3.17;;;2.80;;
61144;SDS011;47026;51.208;3.288;2022-07-29T01:59:45;3.08;;;2.58;;
61144;SDS011;47026;51.208;3.288;2022-07-29T02:02:16;4.32;;;2.67;;
61144;SDS011;47026;51.208;3.288;2022-07-29T02:04:43;5.57;;;2.85;;
61144;SDS011;47026;51.208;3.288;2022-07-29T02:07:13;3.72;;;2.70;;
61144;SDS011;47026;51.208;3.288;2022-07-29T02:09:43;5.95;;;2.87;;
61144;SDS011;47026;51.208;3.288;2022-07-29T02:12:10;4.20;;;2.58;;
61144;SDS011;47026;51.208;3.288;2022-07-29T02:14:41;8.18;;;2.65;;
61144;SDS011;47026;51.208;3.288;2022-07-29T02:17:10;5.75;;;2.70;;
61144;SDS011;47026;51.208;3.288;2022-07-29T02:19:38;3.28;;;2.95;;
61144;SDS011;47026;51.208;3.288;2022-07-29T02:22:06;4.18;;;2.75;;
61144;SDS011;47026;51.208;3.288;2022-07-29T02:24:35;3.70;;;2.58;;
61144;SDS011;47026;51.208;3.288;2022-07-29T02:27:05;5.20;;;2.62;;
61144;SDS011;47026;51.208;3.288;2022-07-29T02:29:33;6.00;;;2.20;;
61144;SDS011;47026;51.208;3.288;2022-07-29T02:32:00;5.82;;;2.47;;
61144;SDS011;47026;51.208;3.288;2022-07-29T02:34:28;3.20;;;2.35;;
61144;SDS011;47026;51.208;3.288;2022-07-29T02:36:54;3.92;;;2.67;;
61144;SDS011;47026;51.208;3.288;2022-07-29T02:39:21;4.47;;;2.80;;
61144;SDS011;47026;51.208;3.288;2022-07-29T02:41:54;4.60;;;2.70;;
61144;SDS011;47026;51.208;3.288;2022-07-29T02:44:25;4.15;;;2.90;;
61144;SDS011;47026;51.208;3.288;2022-07-29T02:46:59;5.90;;;2.80;;
61144;SDS011;47026;51.208;3.288;2022-07-29T02:52:18;3.37;;;2.55;;
61144;SDS011;47026;51.208;3.288;2022-07-29T02:55:01;6.00;;;2.78;;
61144;SDS011;47026;51.208;3.288;2022-07-29T02:57:47;3.37;;;2.70;;
61144;SDS011;47026;51.208;3.288;2022-07-29T03:00:29;4.80;;;3.00;;
61144;SDS011;47026;51.208;3.288;2022-07-29T03:02:58;7.03;;;3.17;;
61144;SDS011;47026;51.208;3.288;2022-07-29T03:05:28;4.18;;;2.72;;
61144;SDS011;47026;51.208;3.288;2022-07-29T03:07:57;3.60;;;2.87;;
61144;SDS011;47026;51.208;3.288;2022-07-29T03:10:25;3.83;;;3.10;;
61144;SDS011;47026;51.208;3.288;2022-07-29T03:12:52;4.60;;;2.78;;
61144;SDS011;47026;51.208;3.288;2022-07-29T03:15:20;5.18;;;2.80;;
61144;SDS011;47026;51.208;3.288;2022-07-29T03:17:46;6.18;;;2.85;;
61144;SDS011;47026;51.208;3.288;2022-07-29T03:20:13;5.30;;;3.28;;
61144;SDS011;47026;51.208;3.288;2022-07-29T03:22:40;4.03;;;3.17;;
61144;SDS011;47026;51.208;3.288;2022-07-29T03:25:14;4.05;;;3.05;;
61144;SDS011;47026;51.208;3.288;2022-07-29T03:27:42;5.28;;;3.20;;
61144;SDS011;47026;51.208;3.288;2022-07-29T03:30:08;6.05;;;3.20;;
61144;SDS011;47026;51.208;3.288;2022-07-29T03:32:35;5.78;;;3.67;;
61144;SDS011;47026;51.208;3.288;2022-07-29T03:35:02;4.60;;;3.45;;
61144;SDS011;47026;51.208;3.288;2022-07-29T03:37:28;4.20;;;3.70;;
61144;SDS011;47026;51.208;3.288;2022-07-29T03:39:56;5.45;;;3.10;;
61144;SDS011;47026;51.208;3.288;2022-07-29T03:42:24;5.25;;;3.42;;
61144;SDS011;47026;51.208;3.288;2022-07-29T03:44:52;5.30;;;3.40;;
61144;SDS011;47026;51.208;3.288;2022-07-29T03:47:20;4.35;;;3.45;;
61144;SDS011;47026;51.208;3.288;2022-07-29T03:49:48;5.00;;;3.50;;
61144;SDS011;47026;51.208;3.288;2022-07-29T03:52:17;4.55;;;3.10;;
61144;SDS011;47026;51.208;3.288;2022-07-29T03:54:43;6.12;;;3.28;;
61144;SDS011;47026;51.208;3.288;2022-07-29T03:57:10;7.47;;;3.60;;
61144;SDS011;47026;51.208;3.288;2022-07-29T03:59:37;4.07;;;3.30;;
61144;SDS011;47026;51.208;3.288;2022-07-29T04:02:04;4.45;;;3.50;;
61144;SDS011;47026;51.208;3.288;2022-07-29T04:04:34;4.62;;;3.35;;
61144;SDS011;47026;51.208;3.288;2022-07-29T04:07:00;6.00;;;3.40;;
61144;SDS011;47026;51.208;3.288;2022-07-29T04:11:52;6.65;;;3.60;;
61144;SDS011;47026;51.208;3.288;2022-07-29T04:14:18;6.45;;;3.35;;
61144;SDS011;47026;51.208;3.288;2022-07-29T04:16:45;4.62;;;3.33;;
61144;SDS011;47026;51.208;3.288;2022-07-29T04:19:11;5.15;;;3.50;;
61144;SDS011;47026;51.208;3.288;2022-07-29T04:24:03;6.27;;;3.70;;
61144;SDS011;47026;51.208;3.288;2022-07-29T04:26:29;5.25;;;3.85;;
61144;SDS011;47026;51.208;3.288;2022-07-29T04:31:21;6.43;;;3.97;;
61144;SDS011;47026;51.208;3.288;2022-07-29T04:33:47;7.28;;;3.95;;
61144;SDS011;47026;51.208;3.288;2022-07-29T04:38:38;6.80;;;3.87;;
61144;SDS011;47026;51.208;3.288;2022-07-29T04:45:58;6.18;;;3.55;;
61144;SDS011;47026;51.208;3.288;2022-07-29T04:48:24;5.57;;;3.80;;
61144;SDS011;47026;51.208;3.288;2022-07-29T04:50:50;3.45;;;2.90;;
61144;SDS011;47026;51.208;3.288;2022-07-29T04:55:42;5.25;;;3.40;;
61144;SDS011;47026;51.208;3.288;2022-07-29T04:58:08;3.95;;;3.42;;
61144;SDS011;47026;51.208;3.288;2022-07-29T05:03:00;5.70;;;4.07;;
61144;SDS011;47026;51.208;3.288;2022-07-29T05:07:52;6.93;;;3.97;;
61144;SDS011;47026;51.208;3.288;2022-07-29T05:10:18;5.75;;;3.72;;
61144;SDS011;47026;51.208;3.288;2022-07-29T05:15:09;4.90;;;3.85;;
61144;SDS011;47026;51.208;3.288;2022-07-29T05:20:01;6.65;;;3.70;;
61144;SDS011;47026;51.208;3.288;2022-07-29T05:22:27;5.07;;;3.70;;
61144;SDS011;47026;51.208;3.288;2022-07-29T05:27:19;9.82;;;4.07;;
61144;SDS011;47026;51.208;3.288;2022-07-29T05:32:10;6.10;;;3.62;;
61144;SDS011;47026;51.208;3.288;2022-07-29T05:34:37;4.75;;;3.95;;
61144;SDS011;47026;51.208;3.288;2022-07-29T05:39:29;8.27;;;3.75;;
61144;SDS011;47026;51.208;3.288;2022-07-29T05:44:20;4.20;;;3.28;;
61144;SDS011;47026;51.208;3.288;2022-07-29T05:49:11;5.53;;;3.55;;
61144;SDS011;47026;51.208;3.288;2022-07-29T05:51:37;4.80;;;3.90;;
61144;SDS011;47026;51.208;3.288;2022-07-29T05:54:03;4.37;;;3.67;;
61144;SDS011;47026;51.208;3.288;2022-07-29T05:58:55;7.07;;;3.30;;
61144;SDS011;47026;51.208;3.288;2022-07-29T06:01:21;5.12;;;3.45;;
61144;SDS011;47026;51.208;3.288;2022-07-29T06:03:47;6.05;;;3.53;;
61144;SDS011;47026;51.208;3.288;2022-07-29T06:06:25;6.95;;;3.40;;
61144;SDS011;47026;51.208;3.288;2022-07-29T06:08:50;9.70;;;5.45;;
61144;SDS011;47026;51.208;3.288;2022-07-29T06:11:16;8.10;;;5.05;;
61144;SDS011;47026;51.208;3.288;2022-07-29T06:13:42;8.10;;;3.53;;
61144;SDS011;47026;51.208;3.288;2022-07-29T06:16:08;4.20;;;3.10;;
61144;SDS011;47026;51.208;3.288;2022-07-29T06:18:34;4.72;;;3.00;;
61144;SDS011;47026;51.208;3.288;2022-07-29T06:21:09;5.00;;;3.10;;
61144;SDS011;47026;51.208;3.288;2022-07-29T06:23:36;5.03;;;3.15;;
61144;SDS011;47026;51.208;3.288;2022-07-29T06:26:02;3.90;;;3.10;;
61144;SDS011;47026;51.208;3.288;2022-07-29T06:28:28;6.32;;;4.20;;
61144;SDS011;47026;51.208;3.288;2022-07-29T06:30:54;3.80;;;3.10;;
61144;SDS011;47026;51.208;3.288;2022-07-29T06:33:20;7.62;;;3.20;;
61144;SDS011;47026;51.208;3.288;2022-07-29T06:35:45;6.03;;;2.78;;
61144;SDS011;47026;51.208;3.288;2022-07-29T06:38:12;5.45;;;2.92;;
61144;SDS011;47026;51.208;3.288;2022-07-29T06:40:42;5.15;;;3.00;;
61144;SDS011;47026;51.208;3.288;2022-07-29T06:43:31;6.12;;;3.00;;
61144;SDS011;47026;51.208;3.288;2022-07-29T06:46:05;4.17;;;2.73;;
61144;SDS011;47026;51.208;3.288;2022-07-29T06:48:35;5.87;;;2.97;;
61144;SDS011;47026;51.208;3.288;2022-07-29T06:51:02;6.07;;;2.72;;
61144;SDS011;47026;51.208;3.288;2022-07-29T06:53:29;3.80;;;2.62;;
61144;SDS011;47026;51.208;3.288;2022-07-29T06:55:55;7.85;;;3.03;;
61144;SDS011;47026;51.208;3.288;2022-07-29T06:58:23;4.85;;;3.20;;
61144;SDS011;47026;51.208;3.288;2022-07-29T07:00:49;6.53;;;2.62;;
61144;SDS011;47026;51.208;3.288;2022-07-29T07:03:15;5.10;;;2.42;;
61144;SDS011;47026;51.208;3.288;2022-07-29T07:05:43;4.60;;;2.28;;
61144;SDS011;47026;51.208;3.288;2022-07-29T07:08:09;2.78;;;2.20;;
61144;SDS011;47026;51.208;3.288;2022-07-29T07:10:36;6.55;;;2.35;;
61144;SDS011;47026;51.208;3.288;2022-07-29T07:13:02;6.18;;;2.85;;
61144;SDS011;47026;51.208;3.288;2022-07-29T07:15:29;4.03;;;2.67;;
61144;SDS011;47026;51.208;3.288;2022-07-29T07:17:55;5.53;;;2.45;;
61144;SDS011;47026;51.208;3.288;2022-07-29T07:20:22;2.92;;;2.17;;
61144;SDS011;47026;51.208;3.288;2022-07-29T07:22:48;6.50;;;2.25;;
61144;SDS011;47026;51.208;3.288;2022-07-29T07:25:14;5.90;;;2.35;;
61144;SDS011;47026;51.208;3.288;2022-07-29T07:27:42;7.55;;;2.33;;
61144;SDS011;47026;51.208;3.288;2022-07-29T07:30:09;5.25;;;2.28;;
61144;SDS011;47026;51.208;3.288;2022-07-29T07:32:37;3.03;;;2.35;;
61144;SDS011;47026;51.208;3.288;2022-07-29T07:35:04;3.80;;;2.65;;
61144;SDS011;47026;51.208;3.288;2022-07-29T07:37:31;3.80;;;2.20;;
61144;SDS011;47026;51.208;3.288;2022-07-29T07:39:57;3.80;;;2.08;;
61144;SDS011;47026;51.208;3.288;2022-07-29T07:42:23;3.55;;;2.33;;
61144;SDS011;47026;51.208;3.288;2022-07-29T07:44:49;3.08;;;2.25;;
61144;SDS011;47026;51.208;3.288;2022-07-29T07:47:15;4.40;;;2.00;;
61144;SDS011;47026;51.208;3.288;2022-07-29T07:49:44;4.45;;;1.98;;
61144;SDS011;47026;51.208;3.288;2022-07-29T07:52:14;4.32;;;2.03;;
61144;SDS011;47026;51.208;3.288;2022-07-29T07:54:41;3.42;;;1.90;;
61144;SDS011;47026;51.208;3.288;2022-07-29T07:57:08;6.70;;;2.50;;
61144;SDS011;47026;51.208;3.288;2022-07-29T07:59:34;4.55;;;2.10;;
61144;SDS011;47026;51.208;3.288;2022-07-29T08:02:00;4.50;;;2.10;;
61144;SDS011;47026;51.208;3.288;2022-07-29T08:04:26;5.85;;;2.10;;
61144;SDS011;47026;51.208;3.288;2022-07-29T08:06:52;3.62;;;2.10;;
61144;SDS011;47026;51.208;3.288;2022-07-29T08:09:19;7.10;;;2.00;;
61144;SDS011;47026;51.208;3.288;2022-07-29T08:11:45;6.65;;;2.05;;
61144;SDS011;47026;51.208;3.288;2022-07-29T08:14:12;6.72;;;2.10;;
61144;SDS011;47026;51.208;3.288;2022-07-29T08:16:38;4.93;;;2.10;;
61144;SDS011;47026;51.208;3.288;2022-07-29T08:19:06;3.42;;;1.73;;
61144;SDS011;47026;51.208;3.288;2022-07-29T08:21:31;3.33;;;1.77;;
61144;SDS011;47026;51.208;3.288;2022-07-29T08:23:57;3.58;;;1.67;;
61144;SDS011;47026;51.208;3.288;2022-07-29T08:26:42;3.33;;;1.62;;
61144;SDS011;47026;51.208;3.288;2022-07-29T08:29:08;2.50;;;1.67;;
61144;SDS011;47026;51.208;3.288;2022-07-29T08:31:35;2.95;;;1.75;;
61144;SDS011;47026;51.208;3.288;2022-07-29T08:34:02;5.80;;;1.98;;
61144;SDS011;47026;51.208;3.288;2022-07-29T08:36:29;4.55;;;1.80;;
61144;SDS011;47026;51.208;3.288;2022-07-29T08:38:55;3.33;;;1.50;;
61144;SDS011;47026;51.208;3.288;2022-07-29T08:41:22;2.72;;;1.50;;
61144;SDS011;47026;51.208;3.288;2022-07-29T08:43:48;5.05;;;1.77;;
61144;SDS011;47026;51.208;3.288;2022-07-29T08:46:15;5.15;;;1.77;;
61144;SDS011;47026;51.208;3.288;2022-07-29T08:48:42;3.97;;;1.55;;
61144;SDS011;47026;51.208;3.288;2022-07-29T08:51:08;9.85;;;2.95;;
61144;SDS011;47026;51.208;3.288;2022-07-29T08:53:43;8.55;;;2.80;;
61144;SDS011;47026;51.208;3.288;2022-07-29T08:56:19;11.73;;;2.97;;
61144;SDS011;47026;51.208;3.288;2022-07-29T08:58:47;10.20;;;2.17;;
61144;SDS011;47026;51.208;3.288;2022-07-29T09:01:16;5.62;;;1.92;;
61144;SDS011;47026;51.208;3.288;2022-07-29T09:03:45;6.40;;;2.15;;
61144;SDS011;47026;51.208;3.288;2022-07-29T09:06:15;5.90;;;2.28;;
61144;SDS011;47026;51.208;3.288;2022-07-29T09:08:44;36.85;;;5.03;;
61144;SDS011;47026;51.208;3.288;2022-07-29T09:11:11;5.53;;;1.87;;
61144;SDS011;47026;51.208;3.288;2022-07-29T09:13:38;9.23;;;2.72;;
61144;SDS011;47026;51.208;3.288;2022-07-29T09:16:04;6.32;;;2.37;;
61144;SDS011;47026;51.208;3.288;2022-07-29T09:18:41;24.87;;;4.10;;
61144;SDS011;47026;51.208;3.288;2022-07-29T09:21:09;4.53;;;1.95;;
61144;SDS011;47026;51.208;3.288;2022-07-29T09:26:36;3.87;;;1.92;;
61144;SDS011;47026;51.208;3.288;2022-07-29T09:31:38;4.62;;;1.83;;
61144;SDS011;47026;51.208;3.288;2022-07-29T09:34:05;4.75;;;2.15;;
61144;SDS011;47026;51.208;3.288;2022-07-29T09:39:07;2.62;;;1.65;;
61144;SDS011;47026;51.208;3.288;2022-07-29T09:44:11;5.62;;;1.70;;
61144;SDS011;47026;51.208;3.288;2022-07-29T09:46:37;4.22;;;1.80;;
61144;SDS011;47026;51.208;3.288;2022-07-29T09:51:35;4.30;;;1.50;;
61144;SDS011;47026;51.208;3.288;2022-07-29T09:54:03;3.22;;;1.62;;
61144;SDS011;47026;51.208;3.288;2022-07-29T09:56:53;3.62;;;2.03;;
61144;SDS011;47026;51.208;3.288;2022-07-29T09:59:20;3.25;;;1.48;;
61144;SDS011;47026;51.208;3.288;2022-07-29T10:01:49;2.40;;;1.42;;
61144;SDS011;47026;51.208;3.288;2022-07-29T10:04:15;4.55;;;1.70;;
61144;SDS011;47026;51.208;3.288;2022-07-29T10:06:58;2.78;;;1.65;;
61144;SDS011;47026;51.208;3.288;2022-07-29T10:09:24;4.05;;;1.50;;
61144;SDS011;47026;51.208;3.288;2022-07-29T10:14:39;5.43;;;1.40;;
61144;SDS011;47026;51.208;3.288;2022-07-29T10:17:06;3.35;;;1.40;;
61144;SDS011;47026;51.208;3.288;2022-07-29T10:19:33;3.30;;;1.40;;
61144;SDS011;47026;51.208;3.288;2022-07-29T10:22:02;2.62;;;1.48;;
61144;SDS011;47026;51.208;3.288;2022-07-29T10:24:30;2.62;;;1.50;;
61144;SDS011;47026;51.208;3.288;2022-07-29T10:26:57;2.53;;;1.42;;
61144;SDS011;47026;51.208;3.288;2022-07-29T10:29:25;5.78;;;1.65;;
61144;SDS011;47026;51.208;3.288;2022-07-29T10:31:56;3.17;;;1.20;;
61144;SDS011;47026;51.208;3.288;2022-07-29T10:34:36;6.28;;;1.73;;
61144;SDS011;47026;51.208;3.288;2022-07-29T10:43:05;2.37;;;1.27;;
61144;SDS011;47026;51.208;3.288;2022-07-29T10:45:57;3.47;;;1.55;;
61144;SDS011;47026;51.208;3.288;2022-07-29T10:48:24;1.92;;;1.60;;
61144;SDS011;47026;51.208;3.288;2022-07-29T10:50:55;5.82;;;1.77;;
61144;SDS011;47026;51.208;3.288;2022-07-29T10:53:48;3.62;;;1.50;;
61144;SDS011;47026;51.208;3.288;2022-07-29T10:56:25;2.28;;;1.30;;
61144;SDS011;47026;51.208;3.288;2022-07-29T11:01:51;3.15;;;1.55;;
61144;SDS011;47026;51.208;3.288;2022-07-29T11:07:07;2.58;;;1.60;;
61144;SDS011;47026;51.208;3.288;2022-07-29T11:09:33;3.92;;;1.80;;
61144;SDS011;47026;51.208;3.288;2022-07-29T11:11:59;4.00;;;1.60;;
61144;SDS011;47026;51.208;3.288;2022-07-29T11:17:24;3.05;;;1.60;;
61144;SDS011;47026;51.208;3.288;2022-07-29T11:19:50;3.33;;;1.62;;
61144;SDS011;47026;51.208;3.288;2022-07-29T11:22:32;2.80;;;1.40;;
61144;SDS011;47026;51.208;3.288;2022-07-29T11:27:54;3.55;;;1.50;;
61144;SDS011;47026;51.208;3.288;2022-07-29T11:30:48;2.58;;;1.42;;
61144;SDS011;47026;51.208;3.288;2022-07-29T11:33:31;4.03;;;1.50;;
61144;SDS011;47026;51.208;3.288;2022-07-29T11:36:08;3.78;;;1.70;;
61144;SDS011;47026;51.208;3.288;2022-07-29T11:38:40;4.40;;;1.50;;
61144;SDS011;47026;51.208;3.288;2022-07-29T11:41:19;2.67;;;1.37;;
61144;SDS011;47026;51.208;3.288;2022-07-29T11:49:11;3.55;;;1.70;;
61144;SDS011;47026;51.208;3.288;2022-07-29T11:51:38;3.20;;;1.50;;
61144;SDS011;47026;51.208;3.288;2022-07-29T11:54:05;3.83;;;1.45;;
61144;SDS011;47026;51.208;3.288;2022-07-29T11:56:36;1.85;;;1.30;;
61144;SDS011;47026;51.208;3.288;2022-07-29T11:59:08;4.20;;;1.75;;
61144;SDS011;47026;51.208;3.288;2022-07-29T12:01:35;2.30;;;1.50;;
61144;SDS011;47026;51.208;3.288;2022-07-29T12:04:04;2.60;;;1.40;;
61144;SDS011;47026;51.208;3.288;2022-07-29T12:06:32;4.43;;;1.80;;
61144;SDS011;47026;51.208;3.288;2022-07-29T12:09:06;2.42;;;1.35;;
61144;SDS011;47026;51.208;3.288;2022-07-29T12:11:33;2.37;;;1.48;;
61144;SDS011;47026;51.208;3.288;2022-07-29T12:13:59;3.45;;;1.60;;
61144;SDS011;47026;51.208;3.288;2022-07-29T12:16:34;3.53;;;1.83;;
61144;SDS011;47026;51.208;3.288;2022-07-29T12:19:01;3.37;;;1.50;;
61144;SDS011;47026;51.208;3.288;2022-07-29T12:21:44;5.30;;;1.67;;
61144;SDS011;47026;51.208;3.288;2022-07-29T12:24:11;2.87;;;1.70;;
61144;SDS011;47026;51.208;3.288;2022-07-29T12:26:48;4.03;;;1.60;;
61144;SDS011;47026;51.208;3.288;2022-07-29T12:29:22;3.55;;;1.70;;
61144;SDS011;47026;51.208;3.288;2022-07-29T12:31:52;5.07;;;1.70;;
61144;SDS011;47026;51.208;3.288;2022-07-29T12:34:20;4.18;;;1.73;;
61144;SDS011;47026;51.208;3.288;2022-07-29T12:36:48;4.15;;;1.62;;
61144;SDS011;47026;51.208;3.288;2022-07-29T12:39:15;2.87;;;1.60;;
61144;SDS011;47026;51.208;3.288;2022-07-29T12:41:42;5.32;;;1.70;;
61144;SDS011;47026;51.208;3.288;2022-07-29T12:44:09;2.47;;;1.40;;
61144;SDS011;47026;51.208;3.288;2022-07-29T12:46:35;2.83;;;1.40;;
61144;SDS011;47026;51.208;3.288;2022-07-29T12:49:01;1.60;;;1.50;;
61144;SDS011;47026;51.208;3.288;2022-07-29T12:51:31;3.78;;;1.40;;
61144;SDS011;47026;51.208;3.288;2022-07-29T12:54:03;4.07;;;1.40;;
61144;SDS011;47026;51.208;3.288;2022-07-29T12:56:32;4.90;;;1.65;;
61144;SDS011;47026;51.208;3.288;2022-07-29T12:58:58;5.35;;;2.62;;
61144;SDS011;47026;51.208;3.288;2022-07-29T13:01:24;3.45;;;1.30;;
61144;SDS011;47026;51.208;3.288;2022-07-29T13:06:29;3.80;;;1.30;;
61144;SDS011;47026;51.208;3.288;2022-07-29T13:09:00;3.55;;;1.77;;
61144;SDS011;47026;51.208;3.288;2022-07-29T13:11:34;2.37;;;1.50;;
61144;SDS011;47026;51.208;3.288;2022-07-29T13:14:06;5.30;;;1.80;;
61144;SDS011;47026;51.208;3.288;2022-07-29T13:16:37;2.50;;;1.50;;
61144;SDS011;47026;51.208;3.288;2022-07-29T13:19:31;3.70;;;1.62;;
61144;SDS011;47026;51.208;3.288;2022-07-29T13:21:58;3.45;;;1.95;;
61144;SDS011;47026;51.208;3.288;2022-07-29T13:24:24;3.60;;;1.87;;
61144;SDS011;47026;51.208;3.288;2022-07-29T13:26:50;3.30;;;1.33;;
61144;SDS011;47026;51.208;3.288;2022-07-29T13:29:17;3.83;;;1.40;;
61144;SDS011;47026;51.208;3.288;2022-07-29T13:31:43;4.55;;;1.62;;
61144;SDS011;47026;51.208;3.288;2022-07-29T13:34:09;3.85;;;1.70;;
61144;SDS011;47026;51.208;3.288;2022-07-29T13:36:35;3.05;;;1.40;;
61144;SDS011;47026;51.208;3.288;2022-07-29T13:39:02;4.82;;;1.40;;
61144;SDS011;47026;51.208;3.288;2022-07-29T13:41:28;3.58;;;1.87;;
61144;SDS011;47026;51.208;3.288;2022-07-29T13:43:55;4.50;;;1.60;;
61144;SDS011;47026;51.208;3.288;2022-07-29T13:46:21;3.42;;;1.50;;
61144;SDS011;47026;51.208;3.288;2022-07-29T13:48:47;5.22;;;1.42;;
61144;SDS011;47026;51.208;3.288;2022-07-29T13:51:13;4.53;;;1.70;;
61144;SDS011;47026;51.208;3.288;2022-07-29T13:53:38;4.82;;;1.70;;
61144;SDS011;47026;51.208;3.288;2022-07-29T13:56:04;4.03;;;1.60;;
61144;SDS011;47026;51.208;3.288;2022-07-29T13:58:33;5.37;;;1.70;;
61144;SDS011;47026;51.208;3.288;2022-07-29T14:00:59;6.85;;;2.10;;
61144;SDS011;47026;51.208;3.288;2022-07-29T14:03:26;8.60;;;2.20;;
61144;SDS011;47026;51.208;3.288;2022-07-29T14:05:51;3.70;;;2.20;;
61144;SDS011;47026;51.208;3.288;2022-07-29T14:08:17;4.90;;;2.10;;
61144;SDS011;47026;51.208;3.288;2022-07-29T14:10:43;5.40;;;1.80;;
61144;SDS011;47026;51.208;3.288;2022-07-29T14:13:09;7.80;;;2.00;;
61144;SDS011;47026;51.208;3.288;2022-07-29T14:15:35;3.55;;;1.92;;
61144;SDS011;47026;51.208;3.288;2022-07-29T14:18:01;4.37;;;1.90;;
61144;SDS011;47026;51.208;3.288;2022-07-29T14:20:28;3.60;;;1.87;;
61144;SDS011;47026;51.208;3.288;2022-07-29T14:22:55;6.37;;;1.90;;
61144;SDS011;47026;51.208;3.288;2022-07-29T14:25:21;5.55;;;2.20;;
61144;SDS011;47026;51.208;3.288;2022-07-29T14:27:48;6.32;;;3.28;;
61144;SDS011;47026;51.208;3.288;2022-07-29T14:30:14;5.37;;;2.35;;
61144;SDS011;47026;51.208;3.288;2022-07-29T14:32:40;5.25;;;2.50;;
61144;SDS011;47026;51.208;3.288;2022-07-29T14:35:06;3.97;;;2.15;;
61144;SDS011;47026;51.208;3.288;2022-07-29T14:37:33;4.05;;;2.00;;
61144;SDS011;47026;51.208;3.288;2022-07-29T14:40:00;5.82;;;2.67;;
61144;SDS011;47026;51.208;3.288;2022-07-29T14:42:28;5.93;;;1.98;;
61144;SDS011;47026;51.208;3.288;2022-07-29T14:44:56;4.45;;;2.00;;
61144;SDS011;47026;51.208;3.288;2022-07-29T14:47:22;5.22;;;2.05;;
61144;SDS011;47026;51.208;3.288;2022-07-29T14:49:48;6.82;;;2.25;;
61144;SDS011;47026;51.208;3.288;2022-07-29T14:52:14;6.37;;;2.10;;
61144;SDS011;47026;51.208;3.288;2022-07-29T14:54:40;3.95;;;2.20;;
61144;SDS011;47026;51.208;3.288;2022-07-29T14:57:06;6.78;;;1.90;;
61144;SDS011;47026;51.208;3.288;2022-07-29T14:59:32;5.57;;;2.40;;
61144;SDS011;47026;51.208;3.288;2022-07-29T15:01:58;3.83;;;2.20;;
61144;SDS011;47026;51.208;3.288;2022-07-29T15:04:24;7.00;;;2.40;;
61144;SDS011;47026;51.208;3.288;2022-07-29T15:06:50;2.20;;;2.00;;
61144;SDS011;47026;51.208;3.288;2022-07-29T15:09:16;3.28;;;1.90;;
61144;SDS011;47026;51.208;3.288;2022-07-29T15:11:43;7.07;;;2.28;;
61144;SDS011;47026;51.208;3.288;2022-07-29T15:14:11;4.78;;;2.10;;
61144;SDS011;47026;51.208;3.288;2022-07-29T15:16:38;5.18;;;2.10;;
61144;SDS011;47026;51.208;3.288;2022-07-29T15:19:05;3.78;;;1.83;;
61144;SDS011;47026;51.208;3.288;2022-07-29T15:21:31;5.12;;;2.05;;
61144;SDS011;47026;51.208;3.288;2022-07-29T15:23:57;4.30;;;1.70;;
61144;SDS011;47026;51.208;3.288;2022-07-29T15:26:23;4.60;;;1.80;;
61144;SDS011;47026;51.208;3.288;2022-07-29T15:28:49;2.78;;;1.77;;
61144;SDS011;47026;51.208;3.288;2022-07-29T15:31:15;4.15;;;1.80;;
61144;SDS011;47026;51.208;3.288;2022-07-29T15:33:41;3.95;;;1.65;;
61144;SDS011;47026;51.208;3.288;2022-07-29T15:36:07;4.53;;;2.08;;
61144;SDS011;47026;51.208;3.288;2022-07-29T15:38:33;5.05;;;2.05;;
61144;SDS011;47026;51.208;3.288;2022-07-29T15:40:58;3.28;;;1.80;;
61144;SDS011;47026;51.208;3.288;2022-07-29T15:43:24;4.40;;;2.10;;
61144;SDS011;47026;51.208;3.288;2022-07-29T15:45:50;4.12;;;1.80;;
61144;SDS011;47026;51.208;3.288;2022-07-29T15:48:37;4.57;;;1.92;;
61144;SDS011;47026;51.208;3.288;2022-07-29T15:51:03;6.20;;;2.10;;
61144;SDS011;47026;51.208;3.288;2022-07-29T15:53:29;3.30;;;1.90;;
61144;SDS011;47026;51.208;3.288;2022-07-29T15:55:55;4.07;;;1.87;;
61144;SDS011;47026;51.208;3.288;2022-07-29T15:58:20;3.87;;;1.87;;
61144;SDS011;47026;51.208;3.288;2022-07-29T16:00:46;4.00;;;1.90;;
61144;SDS011;47026;51.208;3.288;2022-07-29T16:03:12;5.47;;;2.30;;
61144;SDS011;47026;51.208;3.288;2022-07-29T16:05:39;4.12;;;2.10;;
61144;SDS011;47026;51.208;3.288;2022-07-29T16:08:05;4.43;;;1.92;;
61144;SDS011;47026;51.208;3.288;2022-07-29T16:10:31;5.50;;;2.10;;
61144;SDS011;47026;51.208;3.288;2022-07-29T16:12:57;3.37;;;1.90;;
61144;SDS011;47026;51.208;3.288;2022-07-29T16:15:23;6.10;;;2.22;;
61144;SDS011;47026;51.208;3.288;2022-07-29T16:17:49;4.20;;;2.45;;
61144;SDS011;47026;51.208;3.288;2022-07-29T16:20:14;4.65;;;2.10;;
61144;SDS011;47026;51.208;3.288;2022-07-29T16:22:41;4.95;;;2.03;;
61144;SDS011;47026;51.208;3.288;2022-07-29T16:25:07;5.07;;;1.85;;
61144;SDS011;47026;51.208;3.288;2022-07-29T16:27:33;4.22;;;1.80;;
61144;SDS011;47026;51.208;3.288;2022-07-29T16:29:59;3.30;;;2.00;;
61144;SDS011;47026;51.208;3.288;2022-07-29T16:32:25;3.75;;;1.83;;
61144;SDS011;47026;51.208;3.288;2022-07-29T16:34:51;4.28;;;2.12;;